Flight Track Log - Related Links

Times and Time Zones

All times are in EST time to prevent confusion due to time zone crossing. See the N913CS flight status page for this flight to view local times or setup timezone preferences in your user account.

Time Position Orientation Groundspeed Altitude Reporting Facility
EST Latitude Longitude Course Direction KTS MPH feet Rate Location/Type
Mon 07:41:40 AM 41.8611 -91.7683 130° Southeast 172 198 3,800  Level Chicago Center
Mon 07:42:41 AM 41.8222 -91.7069 130° Southeast 203 234 7,700 3,098 Climbing Chicago Center
Mon 07:43:42 AM 41.8122 -91.6122 98° East 256 295 10,100 2,361 Climbing Chicago Center
Mon 07:44:43 AM 41.7969 -91.4861 99° East 339 390 12,500 2,607 Climbing Chicago Center
Mon 07:45:44 AM 41.7806 -91.3506 99° East 362 417 15,400 2,656 Climbing Chicago Center
Mon 07:46:45 AM 41.7644 -91.2094 99° East 376 433 17,900 2,557 Climbing Chicago Center
Mon 07:47:46 AM 41.7467 -91.0642 99° East 392 451 20,600 2,262 Climbing Chicago Center
Mon 07:48:47 AM 41.7283 -90.9081 99° East 420 483 22,500 1,918 Climbing Chicago Center
Mon 07:49:48 AM 41.7081 -90.7461 99° East 438 504 24,500 2,016 Climbing Chicago Center
Mon 07:50:49 AM 41.6869 -90.5772 99° East 447 514 26,600 2,016 Climbing Chicago Center
Mon 07:51:50 AM 41.6664 -90.4131 99° East 446 513 28,600 1,918 Climbing Chicago Center
Mon 07:52:51 AM 41.6447 -90.2472 100° East 450 518 30,500 1,918 Climbing Chicago Center
Mon 07:53:52 AM 41.6244 -90.0839 99° East 446 513 32,500 1,574 Climbing Chicago Center
Mon 07:54:53 AM 41.6025 -89.9197 100° East 447 514 33,700 1,082 Climbing Chicago Center
Mon 07:55:54 AM 41.5803 -89.7497 100° East 457 526 34,700 639 Climbing Chicago Center
Mon 07:56:55 AM 41.5531 -89.5422 100° East 468 539 35,000 146 Climbing Chicago Center
Mon 07:57:57 AM 41.5283 -89.3647 100° East 480 552 35,000  Level Chicago Center
Mon 07:58:58 AM 41.5056 -89.1911 100° East 477 549 35,000 295 Level Chicago Center
Mon 07:59:59 AM 41.4836 -89.0356 101° East 474 545 35,600 787 Climbing Chicago Center
Mon 08:01:00 AM 41.4600 -88.8633 100° East 474 545 36,600 1,033 Climbing Chicago Center
Mon 08:02:01 AM 41.4297 -88.6547 101° East 479 551 37,700 1,033 Climbing Chicago Center
Mon 08:03:02 AM 41.4047 -88.4825 101° East 478 550 38,700 634 Climbing Chicago Center
Mon 08:04:04 AM 41.3800 -88.3106 101° East 476 548 39,000 146 Climbing Chicago Center
Mon 08:05:05 AM 41.3564 -88.1469 101° East 480 552 39,000  Level Chicago Center
Mon 08:06:06 AM 41.3303 -87.9669 101° East 489 563 39,000  Level Chicago Center
Mon 08:07:07 AM 41.2986 -87.7583 101° East 489 563 39,000  Level Chicago Center
Mon 08:08:08 AM 41.2719 -87.5803 101° East 492 566 39,000  Level Chicago Center
Mon 08:09:10 AM 41.2439 -87.4014 102° East 495 570 39,000  Level Chicago Center
Mon 08:10:11 AM 41.2153 -87.2250 102° East 491 565 39,000  Level Chicago Center
Mon 08:11:12 AM 41.1872 -87.0472 102° East 492 566 39,000  Level Chicago Center
Mon 08:12:14 AM 41.1594 -86.8694 102° East 493 567 39,000  Level Chicago Center
Mon 08:13:15 AM 41.1303 -86.6831 102° East 492 566 39,000  Level Chicago Center
Mon 08:14:16 AM 41.1011 -86.5058 102° East 494 568 39,000  Level Chicago Center
Mon 08:15:18 AM 41.0719 -86.3281 102° East 496 571 39,000  Level Chicago Center
Mon 08:16:19 AM 41.0425 -86.1506 102° East 496 571 39,000  Level Chicago Center
Mon 08:17:20 AM 41.0122 -85.9733 103° East 497 572 39,000  Level Chicago Center
Mon 08:18:22 AM 40.9836 -85.7975 102° East 494 568 39,000  Level Chicago Center
Mon 08:19:23 AM 40.9475 -85.5878 103° East 492 566 39,000  Level Chicago Center
Mon 08:20:25 AM 40.9169 -85.4114 103° East 494 568 39,000  Level Chicago Center
Mon 08:21:26 AM 40.8847 -85.2319 103° East 501 577 39,000  Level Chicago Center
Mon 08:22:27 AM 40.8533 -85.0533 103° East 503 579 39,000  Level Chicago Center
Mon 08:23:29 AM 40.8228 -84.8772 103° East 499 574 39,000  Level Chicago Center
Mon 08:24:30 AM 40.7908 -84.7022 104° East 495 570 39,000  Level Chicago Center
Mon 08:25:09 AM 40.7683 -84.5817 104° East 496 571 39,000  Level Indianapolis Center
Mon 08:26:11 AM 40.7358 -84.4050 104° East 496 571 39,000  Level Indianapolis Center
Mon 08:27:12 AM 40.7033 -84.2317 104° East 494 568 39,000  Level Indianapolis Center
Mon 08:28:13 AM 40.6731 -84.0586 103° East 487 560 39,000  Level Indianapolis Center
Mon 08:29:14 AM 40.6397 -83.8853 104° East 487 560 39,000  Level Indianapolis Center
Mon 08:30:15 AM 40.6011 -83.6767 104° East 488 562 39,000  Level Indianapolis Center
Mon 08:31:16 AM 40.5675 -83.5031 104° East 487 560 39,000  Level Indianapolis Center
Mon 08:32:17 AM 40.5342 -83.3294 104° East 488 562 39,000  Level Indianapolis Center
Mon 08:33:19 AM 40.5003 -83.1544 104° East 488 562 39,000  Level Indianapolis Center
Mon 08:34:20 AM 40.4664 -82.9811 104° East 488 562 39,000  Level Indianapolis Center
Mon 08:35:21 AM 40.4319 -82.8078 105° East 488 562 39,000  Level Indianapolis Center
Mon 08:37:23 AM 40.3642 -82.4672 105° East 487 560 39,000  Level Cleveland Center
Mon 08:38:25 AM 40.3283 -82.2894 105° East 487 560 39,000  Level Cleveland Center
Mon 08:39:26 AM 40.2922 -82.1200 106° East 491 565 39,000  Level Cleveland Center
Mon 08:40:28 AM 40.2569 -81.9458 105° East 492 566 39,000  Level Cleveland Center
Mon 08:41:29 AM 40.2219 -81.7686 104° East 500 575 39,000  Level Cleveland Center
Mon 08:42:29 AM 40.1847 -81.5833 105° East 501 577 39,000  Level Indianapolis Center
Mon 08:43:31 AM 40.1486 -81.4039 105° East 505 581 39,000 -98 Level Indianapolis Center
Mon 08:44:32 AM 40.1064 -81.1958 105° East 505 581 38,800 -738 Descending Indianapolis Center
Mon 08:45:33 AM 40.0717 -81.0186 104° East 505 581 37,500 -1,344 Descending Indianapolis Center
Mon 08:46:37 AM 40.0344 -80.8419 105° East 485 558 36,000 -1,200 Descending Cleveland Center
Mon 08:47:38 AM 39.9997 -80.6703 105° East 491 565 35,000 -492 Descending Cleveland Center
Mon 08:48:39 AM 39.9656 -80.5039 105° East 484 557 35,000 -244 Level Cleveland Center
Mon 08:49:41 AM 39.9300 -80.3375 106° East 484 557 34,500 -1,073 Descending Cleveland Center
Mon 08:50:42 AM 39.8953 -80.1744 105° East 478 550 32,800 -1,805 Descending Cleveland Center
Mon 08:51:44 AM 39.8586 -80.0067 106° East 484 557 30,800 -2,195 Descending Cleveland Center
Mon 08:52:45 AM 39.8142 -79.7953 105° East 506 582 28,300 -1,902 Descending Cleveland Center
Mon 08:53:47 AM 39.7758 -79.6206 106° East 507 583 26,900 -1,366 Descending Cleveland Center
Mon 08:54:48 AM 39.7381 -79.4464 106° East 506 582 25,500 -1,027 Descending Cleveland Center
Mon 08:55:38 AM 39.7089 -79.2978 104° East 501 577 25,000 -275 Descending Washington Center
Mon 08:56:37 AM 39.6719 -79.1339 106° East 488 562 25,000 -807 Level Washington Center
Mon 08:57:37 AM 39.6392 -78.9733 105° East 476 548 23,400 -2,311 Descending Washington Center
Mon 08:58:39 AM 39.5997 -78.8181 108° East 464 534 20,300 -2,557 Descending Washington Center
Mon 08:59:39 AM 39.5739 -78.6931 105° East 459 528 18,200 -2,256 Descending Washington Center
Mon 09:00:36 AM 39.5364 -78.5219 106° East 432 497 15,900 -1,627 Descending Washington Center
Mon 09:01:37 AM 39.5064 -78.3833 106° East 412 474 15,000 -446 Descending Washington Center
Mon 09:02:37 AM 39.4742 -78.2450 107° East 405 466 15,000  Level Washington Center
Mon 09:03:37 AM 39.4439 -78.1017 105° East 405 466 15,000  Level Washington Center
Mon 09:04:37 AM 39.4133 -77.9581 105° East 405 466 15,000 -344 Level Washington Center
Mon 09:05:39 AM 39.3844 -77.8364 107° East 400 460 14,300 -1,525 Descending Washington Center
Mon 09:06:39 AM 39.3575 -77.7039 105° East 400 460 11,900 -2,471 Descending Washington Center
Mon 09:07:38 AM 39.3344 -77.5881 104° East 367 422 9,400 -2,350 Descending Washington Center
Mon 09:08:39 AM 39.3114 -77.4828 106° East 329 379 7,200 -1,866 Descending Washington Center
Mon 09:09:37 AM 39.2878 -77.3828 107° East 309 356 5,700 -1,409 Descending Washington Center
Mon 09:10:51 AM 39.2667 -77.2667 103° East 253 291 4,100 -1,164 Descending Potomac TRACON
Mon 09:11:51 AM 39.2500 -77.1667 102° East 253 291 3,100 -550 Descending Potomac TRACON
Mon 09:12:51 AM 39.2333 -77.1000 108° East 227 261 3,000 -50 Descending Potomac TRACON
Mon 09:13:51 AM 39.2167 -77.0167 104° East 198 228 3,000  Level Potomac TRACON
Mon 09:14:52 AM 39.2000 -76.9500 108° East 185 213 3,000  Level Potomac TRACON
Mon 09:15:52 AM 39.1833 -76.9000 113° Southeast 175 201 3,000 -149 Level Potomac TRACON
Mon 09:16:53 AM 39.1833 -76.8333 90° East 169 194 2,700 -645 Descending Potomac TRACON
Mon 09:17:53 AM 39.1833 -76.7833 90° East 149 171 1,700 -950 Descending Potomac TRACON
Mon 09:18:53 AM 39.1833 -76.7167 90° East 145 167 800 -900 Descending Potomac TRACON
Mon 09:20:00 AM 39.1667 -76.6667 150° Southeast  Level FlightAware Approximate
Mon 09:27:00 AM 39.1754 -76.6683 150° Southeast  Level Estimated
Mon 09:28:00 AM 39.1754 -76.6683 150° Southeast  Level Estimated

Login

Don't have an account? Register now (free) for customized features, flight alerts, and more!